Time;durP1;ratioP1;P1;durP2;ratioP2;P2;SDS_P1;SDS_P2;PMS_P1;PMS_P2;Temp;Humidity;BMP_temperature;BMP_pressure;BME280_temperature;BME280_humidity;BME280_pressure;Samples;Min_cycle;Max_cycle;Signal;HPM_P1;HPM_P2
2022/01/07 00:02:09;;;;;;;22.30;15.63;;;4.70;99.90;;;;;;4860306;29;20063;-50
2022/01/07 00:04:36;;;;;;;21.92;14.90;;;4.70;99.90;;;;;;4919959;29;20052;-50
2022/01/07 00:07:05;;;;;;;18.95;13.20;;;4.70;99.90;;;;;;4806414;29;20057;-50
2022/01/07 00:09:31;;;;;;;21.45;14.32;;;4.70;99.90;;;;;;4732171;29;20103;-50
2022/01/07 00:11:57;;;;;;;19.02;13.93;;;4.70;99.90;;;;;;4806734;29;20058;-50
2022/01/07 00:14:23;;;;;;;18.08;12.93;;;4.70;99.90;;;;;;4806418;29;20117;-50
2022/01/07 00:16:49;;;;;;;22.65;14.40;;;4.80;99.90;;;;;;4806687;29;20187;-50
2022/01/07 00:19:15;;;;;;;24.33;15.20;;;4.80;99.90;;;;;;4791331;29;20129;-50
2022/01/07 00:21:41;;;;;;;20.98;14.00;;;4.80;99.90;;;;;;4806627;29;20230;-50
2022/01/07 00:24:07;;;;;;;20.63;12.32;;;4.80;99.90;;;;;;4806679;29;20561;-50
2022/01/07 00:26:33;;;;;;;24.83;15.85;;;4.80;99.90;;;;;;4806524;29;20050;-50
2022/01/07 00:28:59;;;;;;;25.67;15.00;;;4.80;99.90;;;;;;4761481;29;20050;-50
2022/01/07 00:31:24;;;;;;;30.98;20.15;;;4.80;99.90;;;;;;4806396;29;20126;-51
2022/01/07 00:33:50;;;;;;;42.58;26.10;;;4.80;99.90;;;;;;4776365;29;20047;-50
2022/01/07 00:36:16;;;;;;;38.55;23.42;;;4.90;99.90;;;;;;4806372;29;20045;-50
2022/01/07 00:38:43;;;;;;;29.33;18.58;;;4.90;99.90;;;;;;4852402;29;20044;-50
2022/01/07 00:41:08;;;;;;;28.80;18.02;;;4.90;99.90;;;;;;4883273;29;20040;-50
2022/01/07 00:43:34;;;;;;;23.23;15.15;;;4.90;99.90;;;;;;4882681;29;20049;-50
2022/01/07 00:46:00;;;;;;;26.85;15.50;;;4.80;99.90;;;;;;4898655;29;20044;-50
2022/01/07 00:48:26;;;;;;;21.08;13.70;;;4.90;99.90;;;;;;4898600;29;20040;-50
2022/01/07 00:50:52;;;;;;;20.60;13.57;;;4.80;99.90;;;;;;4899176;29;20050;-50
2022/01/07 00:53:18;;;;;;;25.70;17.40;;;4.80;99.90;;;;;;4900500;29;20403;-50
2022/01/07 00:55:44;;;;;;;58.15;31.38;;;4.90;99.90;;;;;;4900294;29;20032;-50
2022/01/07 00:58:10;;;;;;;54.03;33.50;;;4.90;99.90;;;;;;4900431;29;20401;-50
2022/01/07 01:00:36;;;;;;;25.48;17.88;;;4.90;99.90;;;;;;4901484;29;20063;-50
2022/01/07 01:03:02;;;;;;;20.13;15.30;;;4.90;99.90;;;;;;4898942;29;20076;-50
2022/01/07 01:05:28;;;;;;;21.70;15.45;;;4.80;99.90;;;;;;4901123;29;20067;-50
2022/01/07 01:07:54;;;;;;;21.15;14.98;;;4.90;99.90;;;;;;4898455;29;20045;-49
2022/01/07 01:10:24;;;;;;;19.48;14.20;;;5.00;99.90;;;;;;4907513;29;20048;-50
2022/01/07 01:12:51;;;;;;;23.63;15.55;;;4.90;99.90;;;;;;4918655;29;20032;-50
2022/01/07 01:15:23;;;;;;;25.75;17.40;;;5.00;99.90;;;;;;4918579;29;20028;-50
2022/01/07 01:17:53;;;;;;;23.65;16.65;;;5.00;99.90;;;;;;4841145;29;20506;-50
2022/01/07 01:20:19;;;;;;;28.58;19.83;;;5.00;99.90;;;;;;4919085;29;20032;-50
2022/01/07 01:22:46;;;;;;;23.05;15.88;;;5.00;99.90;;;;;;4885334;29;20460;-50
2022/01/07 01:25:12;;;;;;;23.25;16.52;;;4.80;99.90;;;;;;4918802;29;20035;-51
2022/01/07 01:27:42;;;;;;;23.52;16.17;;;4.80;99.90;;;;;;4918628;29;20043;-50
2022/01/07 01:30:11;;;;;;;25.08;16.58;;;4.70;99.90;;;;;;4918786;29;20032;-50
2022/01/07 01:32:37;;;;;;;20.35;14.35;;;4.60;99.90;;;;;;4918539;29;20122;-50
2022/01/07 01:35:06;;;;;;;24.55;14.75;;;4.60;99.90;;;;;;4869716;29;20052;-50
2022/01/07 01:37:32;;;;;;;21.80;15.27;;;4.60;99.90;;;;;;4918743;29;20068;-49
2022/01/07 01:39:58;;;;;;;20.55;14.32;;;4.70;99.90;;;;;;4918424;29;20465;-50
2022/01/07 01:42:24;;;;;;;20.70;14.10;;;4.70;99.90;;;;;;4918322;29;20421;-50
2022/01/07 01:44:50;;;;;;;24.38;15.88;;;4.70;99.90;;;;;;4869474;29;20087;-49
2022/01/07 01:47:16;;;;;;;18.88;13.77;;;4.70;99.90;;;;;;4900674;29;20096;-49
2022/01/07 01:49:42;;;;;;;21.23;12.60;;;4.70;99.90;;;;;;4918236;29;20040;-50
2022/01/07 01:52:08;;;;;;;18.35;13.07;;;4.60;99.90;;;;;;4918264;29;20039;-50
2022/01/07 01:54:34;;;;;;;18.38;13.10;;;4.40;99.90;;;;;;4918073;29;20350;-50
2022/01/07 01:57:00;;;;;;;15.95;11.65;;;4.50;99.90;;;;;;4869343;29;20088;-50
2022/01/07 01:59:28;;;;;;;12.95;9.80;;;4.40;99.90;;;;;;4918271;29;20032;-50
2022/01/07 02:01:55;;;;;;;9.20;5.82;;;4.40;99.90;;;;;;4918127;29;20032;-50
2022/01/07 02:04:21;;;;;;;10.82;7.93;;;4.10;99.90;;;;;;4917797;29;20144;-49
2022/01/07 02:06:48;;;;;;;10.13;5.80;;;4.10;99.90;;;;;;4918011;29;20071;-49
2022/01/07 02:09:14;;;;;;;8.27;5.03;;;3.90;99.90;;;;;;4917993;29;20163;-50
2022/01/07 02:11:40;;;;;;;9.65;6.32;;;3.80;99.90;;;;;;4917454;29;20420;-50
2022/01/07 02:14:07;;;;;;;10.00;5.40;;;3.70;99.90;;;;;;4917944;29;20039;-50
2022/01/07 02:16:33;;;;;;;8.60;5.80;;;3.70;99.90;;;;;;4917963;29;20032;-50
2022/01/07 02:18:59;;;;;;;7.63;5.18;;;3.60;99.90;;;;;;4917659;29;20043;-50
2022/01/07 02:21:25;;;;;;;8.85;5.10;;;3.50;99.90;;;;;;4917488;29;20024;-49
2022/01/07 02:23:51;;;;;;;6.25;4.70;;;3.60;99.90;;;;;;4918048;29;20040;-49
2022/01/07 02:26:19;;;;;;;7.10;3.78;;;3.60;99.90;;;;;;4883740;29;20047;-50
2022/01/07 02:28:45;;;;;;;7.18;3.72;;;3.50;99.90;;;;;;4859005;29;20129;-50
2022/01/07 02:31:11;;;;;;;7.25;4.35;;;3.60;99.90;;;;;;4858996;29;20041;-50
2022/01/07 02:33:36;;;;;;;6.57;4.72;;;3.50;99.90;;;;;;4859240;29;20169;-50
2022/01/07 02:36:07;;;;;;;6.10;3.92;;;3.70;99.90;;;;;;4859135;29;20420;-50
2022/01/07 02:38:34;;;;;;;7.28;4.70;;;3.60;99.90;;;;;;4859006;29;20062;-49
2022/01/07 02:41:00;;;;;;;5.32;3.17;;;3.60;99.90;;;;;;4859175;29;20116;-50
2022/01/07 02:43:25;;;;;;;4.70;3.17;;;3.40;99.90;;;;;;4858758;29;20128;-50
2022/01/07 02:45:51;;;;;;;6.15;3.22;;;3.30;99.90;;;;;;4859114;29;20037;-50
2022/01/07 02:48:17;;;;;;;4.13;2.47;;;3.20;99.90;;;;;;4859062;29;20477;-50
2022/01/07 02:50:43;;;;;;;3.33;2.33;;;3.20;99.90;;;;;;4858989;29;20033;-50
2022/01/07 02:53:10;;;;;;;6.05;3.00;;;3.10;99.90;;;;;;4859024;29;20037;-50
2022/01/07 02:55:38;;;;;;;5.28;3.22;;;3.20;99.90;;;;;;4858910;29;20037;-50
2022/01/07 02:58:04;;;;;;;4.80;3.20;;;3.30;99.90;;;;;;4858696;29;20112;-50
2022/01/07 03:00:31;;;;;;;7.85;3.10;;;3.20;99.90;;;;;;4907034;29;20041;-49
2022/01/07 03:02:58;;;;;;;6.35;4.15;;;3.30;99.90;;;;;;4917548;29;20087;-50
2022/01/07 03:05:24;;;;;;;7.05;3.50;;;3.40;99.90;;;;;;4917080;29;20028;-49
2022/01/07 03:07:51;;;;;;;7.00;3.95;;;3.50;99.90;;;;;;4917301;29;20087;-50
2022/01/07 03:10:20;;;;;;;5.00;3.97;;;3.50;99.90;;;;;;4917233;29;20048;-50
2022/01/07 03:12:46;;;;;;;6.78;4.45;;;3.60;99.90;;;;;;4917021;29;20060;-51
2022/01/07 03:15:12;;;;;;;6.07;4.68;;;3.60;99.90;;;;;;4883718;29;20075;-50
2022/01/07 03:17:40;;;;;;;7.57;4.43;;;3.70;99.90;;;;;;4899352;29;20557;-49
2022/01/07 03:20:14;;;;;;;5.70;4.60;;;3.80;99.90;;;;;;4916979;29;20083;-50
2022/01/07 03:22:41;;;;;;;7.43;4.32;;;3.90;99.90;;;;;;4870021;29;20047;-49
2022/01/07 03:25:08;;;;;;;7.75;4.78;;;3.90;99.90;;;;;;4916884;29;20082;-50
2022/01/07 03:27:34;;;;;;;7.55;5.07;;;3.90;99.90;;;;;;4917005;29;20033;-49
2022/01/07 03:30:01;;;;;;;6.88;4.53;;;3.70;99.90;;;;;;4916956;29;20377;-49
2022/01/07 03:32:26;;;;;;;7.72;5.32;;;3.90;99.90;;;;;;4917137;29;20032;-50
2022/01/07 03:34:53;;;;;;;6.30;4.30;;;4.00;99.90;;;;;;4916918;29;20388;-50
2022/01/07 03:37:19;;;;;;;6.68;5.15;;;4.10;99.90;;;;;;4916913;29;20064;-50
2022/01/07 03:39:45;;;;;;;26.50;15.55;;;4.20;99.90;;;;;;4920559;29;20035;-50
2022/01/07 03:42:11;;;;;;;23.23;14.23;;;4.30;99.90;;;;;;4920533;29;20088;-49
2022/01/07 03:44:36;;;;;;;6.03;3.90;;;4.40;99.90;;;;;;4920169;29;20051;-50
2022/01/07 03:47:03;;;;;;;6.60;4.15;;;4.40;99.90;;;;;;4920581;29;20024;-49
2022/01/07 03:49:29;;;;;;;8.45;4.70;;;4.40;99.90;;;;;;4902498;29;20070;-50
2022/01/07 03:51:54;;;;;;;7.68;3.88;;;4.40;99.90;;;;;;4920703;29;20052;-50
2022/01/07 03:54:20;;;;;;;7.25;4.78;;;4.40;99.90;;;;;;4920347;29;20028;-49
2022/01/07 03:56:46;;;;;;;9.88;4.88;;;4.50;99.90;;;;;;4920116;29;20035;-50
2022/01/07 03:59:12;;;;;;;8.85;4.78;;;4.40;99.90;;;;;;4920262;29;20038;-49
2022/01/07 04:01:37;;;;;;;10.35;5.05;;;4.30;99.90;;;;;;4920093;29;20032;-50
2022/01/07 04:04:03;;;;;;;6.75;4.70;;;4.10;99.90;;;;;;4920307;29;20036;-50
2022/01/07 04:06:29;;;;;;;9.38;4.60;;;4.00;99.90;;;;;;4871108;29;20040;-50
2022/01/07 04:08:55;;;;;;;10.38;4.85;;;4.10;99.90;;;;;;4920322;29;20051;-49
2022/01/07 04:11:21;;;;;;;8.50;5.07;;;4.30;99.90;;;;;;4919753;29;20511;-50
2022/01/07 04:13:47;;;;;;;16.85;8.63;;;4.30;99.90;;;;;;4920154;29;20067;-49
2022/01/07 04:16:13;;;;;;;6.25;4.75;;;4.40;99.90;;;;;;4886313;29;20068;-49
2022/01/07 04:18:39;;;;;;;5.40;3.88;;;4.10;99.90;;;;;;4919720;29;20028;-49
2022/01/07 04:21:05;;;;;;;6.22;4.53;;;3.80;99.90;;;;;;4919766;29;20079;-49
2022/01/07 04:23:31;;;;;;;8.07;4.43;;;3.60;99.90;;;;;;4920108;29;20037;-49
2022/01/07 04:25:57;;;;;;;7.65;4.45;;;3.50;99.90;;;;;;4919514;29;20069;-50
2022/01/07 04:28:23;;;;;;;10.07;6.75;;;3.50;99.90;;;;;;4920091;29;20047;-50
2022/01/07 04:30:49;;;;;;;8.85;5.30;;;3.70;99.90;;;;;;4919752;29;20456;-50
2022/01/07 04:33:21;;;;;;;8.07;4.97;;;3.90;99.90;;;;;;4919285;29;20024;-50
2022/01/07 04:35:47;;;;;;;;;;;3.70;99.90;;;;;;4919942;29;20469;-49
2022/01/07 04:38:13;;;;;;;7.35;4.25;;;3.40;99.90;;;;;;4919589;29;19914;-50
2022/01/07 04:40:39;;;;;;;8.05;4.93;;;3.30;99.90;;;;;;4919513;29;20036;-49
2022/01/07 04:43:06;;;;;;;6.97;4.43;;;3.10;99.90;;;;;;4919469;29;20059;-50
2022/01/07 04:45:33;;;;;;;6.10;4.38;;;3.00;99.90;;;;;;4901601;29;20068;-49
2022/01/07 04:47:59;;;;;;;8.27;4.47;;;3.00;99.90;;;;;;4919004;29;20036;-50
2022/01/07 04:50:25;;;;;;;8.60;4.90;;;3.00;99.90;;;;;;4918940;29;20032;-50
2022/01/07 04:52:51;;;;;;;7.45;5.43;;;2.80;99.90;;;;;;4919259;29;20079;-49
2022/01/07 04:55:26;;;;;;;7.93;5.35;;;2.80;99.90;;;;;;4918929;29;20394;-50
2022/01/07 04:57:52;;;;;;;7.75;4.68;;;3.00;99.90;;;;;;4901262;29;20115;-49
2022/01/07 05:00:21;;;;;;;7.07;4.78;;;3.30;99.90;;;;;;4918796;29;20035;-51
2022/01/07 05:02:47;;;;;;;11.20;6.38;;;3.30;99.90;;;;;;4919243;29;20035;-50
2022/01/07 05:05:13;;;;;;;24.08;13.98;;;3.50;99.90;;;;;;4919140;29;20032;-49
2022/01/07 05:07:39;;;;;;;14.55;9.57;;;3.70;99.90;;;;;;4918857;29;20473;-50
2022/01/07 05:10:08;;;;;;;13.93;8.98;;;3.80;99.90;;;;;;4917907;29;20062;-50
2022/01/07 05:12:34;;;;;;;14.45;9.02;;;3.90;99.90;;;;;;4885496;29;20040;-49
2022/01/07 05:15:00;;;;;;;13.30;7.18;;;3.90;99.90;;;;;;4901173;29;20445;-49
2022/01/07 05:17:26;;;;;;;8.82;5.60;;;4.00;99.90;;;;;;4865849;29;20457;-49
2022/01/07 05:19:51;;;;;;;9.48;5.75;;;4.00;99.90;;;;;;4897804;29;20116;-49
2022/01/07 05:22:17;;;;;;;7.95;4.82;;;4.00;99.90;;;;;;4897671;29;20814;-50
2022/01/07 05:24:43;;;;;;;10.57;6.32;;;3.80;99.90;;;;;;4897382;29;20049;-50
2022/01/07 05:27:09;;;;;;;11.35;7.28;;;3.70;99.90;;;;;;4897475;29;20418;-49
2022/01/07 05:29:35;;;;;;;12.38;9.18;;;3.60;99.90;;;;;;4897457;29;20039;-50
2022/01/07 05:32:03;;;;;;;17.05;10.38;;;3.70;99.90;;;;;;4864684;29;20046;-50
2022/01/07 05:34:29;;;;;;;12.40;8.77;;;3.80;99.90;;;;;;4866670;29;20141;-50
2022/01/07 05:36:55;;;;;;;21.15;14.57;;;3.80;99.90;;;;;;4896074;29;20080;-49
2022/01/07 05:39:20;;;;;;;65.05;39.00;;;3.80;99.90;;;;;;4881385;29;20488;-50
2022/01/07 05:41:46;;;;;;;29.25;19.10;;;3.80;99.90;;;;;;4897179;29;20025;-50
2022/01/07 05:44:12;;;;;;;22.70;11.15;;;3.80;99.90;;;;;;4895960;29;20478;-51
2022/01/07 05:46:38;;;;;;;17.38;11.73;;;3.80;99.90;;;;;;4874718;29;20573;-50
2022/01/07 05:49:04;;;;;;;29.50;16.02;;;3.90;99.90;;;;;;4907397;29;20051;-50
2022/01/07 05:51:29;;;;;;;23.02;15.30;;;3.90;99.90;;;;;;4918223;29;20028;-50
2022/01/07 05:53:55;;;;;;;10.60;7.50;;;3.90;99.90;;;;;;4853864;29;20043;-51
2022/01/07 05:56:21;;;;;;;9.20;6.10;;;3.90;99.90;;;;;;4918025;29;20039;-50
2022/01/07 05:58:46;;;;;;;12.88;6.93;;;3.90;99.90;;;;;;4918137;29;20035;-50
2022/01/07 06:01:12;;;;;;;10.57;7.15;;;3.80;99.90;;;;;;4915964;29;20036;-50
2022/01/07 06:03:40;;;;;;;27.35;15.52;;;3.80;99.90;;;;;;4900159;29;20068;-50
2022/01/07 06:06:06;;;;;;;49.75;25.20;;;3.80;99.90;;;;;;4917602;29;20452;-51
2022/01/07 06:08:31;;;;;;;28.92;20.10;;;3.80;99.90;;;;;;4915014;29;20115;-50
2022/01/07 06:10:57;;;;;;;31.38;18.20;;;3.80;99.90;;;;;;4857978;29;20085;-50
2022/01/07 06:13:23;;;;;;;27.38;15.65;;;3.90;99.90;;;;;;4914000;29;20590;-51
2022/01/07 06:15:49;;;;;;;21.27;12.52;;;3.90;99.90;;;;;;4856672;29;20385;-50
2022/01/07 06:18:14;;;;;;;22.08;14.25;;;3.90;99.90;;;;;;4917312;29;20024;-50
2022/01/07 06:20:40;;;;;;;17.98;15.52;;;3.90;99.90;;;;;;4917299;29;20028;-50
2022/01/07 06:23:06;;;;;;;18.17;15.02;;;3.90;99.90;;;;;;4916581;29;20476;-50
2022/01/07 06:25:32;;;;;;;76.95;42.05;;;3.90;99.90;;;;;;4844714;29;20055;-50
2022/01/07 06:27:58;;;;;;;44.35;32.47;;;3.90;99.90;;;;;;4868782;29;20039;-50
2022/01/07 06:30:23;;;;;;;33.42;20.95;;;3.90;99.90;;;;;;4917544;29;20048;-50
2022/01/07 06:32:49;;;;;;;25.90;18.98;;;3.80;99.90;;;;;;4888061;29;20036;-50
2022/01/07 06:35:16;;;;;;;24.92;14.57;;;3.60;99.90;;;;;;4914001;29;20048;-50
2022/01/07 06:37:42;;;;;;;15.82;11.48;;;3.50;99.90;;;;;;4912028;29;20043;-50
2022/01/07 06:40:09;;;;;;;15.23;10.15;;;3.30;99.90;;;;;;4915502;29;20040;-50
2022/01/07 06:42:35;;;;;;;13.57;9.82;;;3.30;99.90;;;;;;4880025;29;20523;-50
2022/01/07 06:45:01;;;;;;;16.15;11.15;;;3.40;99.90;;;;;;4916812;29;20047;-50
2022/01/07 06:47:27;;;;;;;18.60;11.02;;;3.40;99.90;;;;;;4890348;29;20040;-50
2022/01/07 06:49:53;;;;;;;46.05;21.35;;;3.30;99.90;;;;;;4868298;29;20051;-51
2022/01/07 06:52:19;;;;;;;13.88;10.10;;;3.10;99.90;;;;;;4899744;29;20389;-50
2022/01/07 06:54:45;;;;;;;12.45;9.75;;;4.60;99.90;;;;;;4917152;29;20016;-50
2022/01/07 06:57:11;;;;;;;25.95;16.95;;;6.60;99.90;;;;;;4897184;29;20082;-50
2022/01/07 06:59:36;;;;;;;15.27;12.18;;;8.40;99.90;;;;;;4916051;29;20024;-51
2022/01/07 07:02:02;;;;;;;11.85;8.45;;;9.80;99.90;;;;;;4917012;29;20032;-51
2022/01/07 07:04:29;;;;;;;14.23;9.65;;;11.60;99.90;;;;;;4883786;29;20127;-51
2022/01/07 07:06:55;;;;;;;40.90;22.80;;;13.10;99.90;;;;;;4917444;29;20060;-49
2022/01/07 07:09:21;;;;;;;221.82;201.38;;;14.40;97.40;;;;;;4917223;29;20028;-51
2022/01/07 07:11:47;;;;;;;563.75;508.88;;;15.50;94.40;;;;;;4900223;29;20505;-51
2022/01/07 07:14:13;;;;;;;14.68;8.77;;;16.40;92.60;;;;;;4887648;29;20158;-51
2022/01/07 07:16:39;;;;;;;15.13;9.95;;;17.00;88.60;;;;;;4920744;29;20585;-51
2022/01/07 07:19:05;;;;;;;13.13;9.82;;;17.30;85.00;;;;;;4903745;29;20032;-52
2022/01/07 07:21:31;;;;;;;14.88;11.20;;;17.90;84.60;;;;;;4920737;29;20076;-51
2022/01/07 07:23:57;;;;;;;11.73;9.88;;;18.30;81.70;;;;;;4919459;29;20511;-51
2022/01/07 07:26:23;;;;;;;17.02;12.85;;;19.00;78.50;;;;;;4919532;29;20040;-51
2022/01/07 07:28:49;;;;;;;25.67;17.73;;;19.40;88.90;;;;;;4855314;29;20378;-51
2022/01/07 07:31:17;;;;;;;14.32;10.05;;;19.90;74.70;;;;;;4919460;29;20054;-51
2022/01/07 07:34:06;;;;;;;23.23;17.55;;;20.60;73.60;;;;;;4919410;29;20040;-51
2022/01/07 07:36:31;;;;;;;20.20;15.73;;;21.00;72.60;;;;;;4919297;29;20043;-51
2022/01/07 07:39:08;;;;;;;23.08;18.85;;;21.40;70.60;;;;;;4919364;29;20487;-49
2022/01/07 07:41:36;;;;;;;14.98;11.98;;;21.50;69.80;;;;;;4919383;29;20495;-50
2022/01/07 07:44:02;;;;;;;13.90;10.75;;;22.10;67.70;;;;;;4919261;29;20047;-49
2022/01/07 07:46:31;;;;;;;12.63;9.45;;;22.50;66.40;;;;;;4868124;29;20374;-49
2022/01/07 07:48:57;;;;;;;12.00;9.95;;;22.90;65.80;;;;;;4918411;29;20039;-49
2022/01/07 07:51:23;;;;;;;10.95;9.85;;;23.00;65.30;;;;;;4918879;29;20028;-49
2022/01/07 07:53:49;;;;;;;12.77;9.63;;;23.10;64.90;;;;;;4917123;29;20028;-49
2022/01/07 07:56:16;;;;;;;12.63;11.23;;;23.20;63.20;;;;;;4916372;29;20028;-49
2022/01/07 07:58:43;;;;;;;13.90;9.82;;;23.10;63.00;;;;;;4918960;29;20024;-49
2022/01/07 08:01:09;;;;;;;11.88;9.98;;;23.20;62.10;;;;;;4918940;29;20028;-49
2022/01/07 08:03:35;;;;;;;11.07;9.63;;;23.30;61.80;;;;;;4885409;29;20079;-49
2022/01/07 08:06:01;;;;;;;11.50;10.30;;;23.40;61.30;;;;;;4918905;29;20536;-49
2022/01/07 08:08:27;;;;;;;12.43;9.38;;;23.90;61.10;;;;;;4828122;29;20034;-49
2022/01/07 08:10:57;;;;;;;9.70;8.70;;;23.40;61.10;;;;;;4860147;29;20132;-49
2022/01/07 08:15:58;;;;;;;9.43;8.00;;;23.60;60.70;;;;;;4860358;29;20033;-49
2022/01/07 08:16:19;;;;;;;9.30;7.95;;;24.00;59.10;;;;;;4860186;29;20169;-50
2022/01/07 08:18:49;;;;;;;11.20;9.15;;;23.50;59.80;;;;;;4860259;29;20041;-49
2022/01/07 08:21:15;;;;;;;11.57;9.70;;;24.10;57.80;;;;;;4860286;29;20393;-49
2022/01/07 08:23:43;;;;;;;9.20;8.30;;;23.90;57.90;;;;;;4859403;29;20046;-49
2022/01/07 08:26:11;;;;;;;11.75;9.80;;;24.20;57.20;;;;;;4844679;29;20048;-49
2022/01/07 08:28:44;;;;;;;13.85;7.63;;;23.80;56.40;;;;;;4859777;29;20061;-50
2022/01/07 08:36:27;;;;;;;8.95;7.35;;;24.40;56.10;;;;;;4860204;29;20040;-50
2022/01/07 08:38:54;;;;;;;8.70;6.78;;;24.20;56.60;;;;;;4843838;29;20405;-49
2022/01/07 08:41:23;;;;;;;10.90;8.02;;;24.20;56.00;;;;;;4878221;29;20059;-50
2022/01/07 08:43:49;;;;;;;12.77;8.70;;;25.00;58.60;;;;;;4872084;29;20049;-50
2022/01/07 08:46:15;;;;;;;10.63;9.10;;;24.70;55.30;;;;;;4876274;29;20037;-49
2022/01/07 08:48:42;;;;;;;10.10;8.63;;;23.50;55.70;;;;;;4855210;29;20052;-49
2022/01/07 08:51:08;;;;;;;10.20;9.10;;;23.70;55.60;;;;;;4827381;29;20063;-50
2022/01/07 08:53:34;;;;;;;11.48;9.57;;;23.90;55.40;;;;;;4822845;29;20196;-50
2022/01/07 08:56:00;;;;;;;12.73;11.52;;;23.40;55.70;;;;;;4822252;29;20049;-50
2022/01/07 08:58:26;;;;;;;15.95;14.35;;;24.10;55.70;;;;;;4792847;29;20125;-50
2022/01/07 09:00:52;;;;;;;16.33;13.35;;;23.80;61.40;;;;;;4823754;29;20027;-50
2022/01/07 09:03:18;;;;;;;14.65;12.77;;;23.80;55.50;;;;;;4823636;29;20057;-50
2022/01/07 09:05:44;;;;;;;14.15;12.88;;;23.70;55.50;;;;;;4824247;29;20038;-50
2022/01/07 09:08:12;;;;;;;11.57;10.57;;;24.00;55.40;;;;;;4837462;29;20145;-51
2022/01/07 09:10:38;;;;;;;36.58;30.30;;;23.60;54.80;;;;;;4823644;29;20046;-50
2022/01/07 09:13:05;;;;;;;17.38;12.05;;;23.50;54.50;;;;;;4823699;29;20167;-51
2022/01/07 09:15:30;;;;;;;22.80;21.40;;;24.00;54.40;;;;;;4850685;29;20040;-50
2022/01/07 09:17:56;;;;;;;10.52;9.60;;;24.70;54.30;;;;;;4859915;29;20394;-50
2022/01/07 09:20:22;;;;;;;16.10;14.63;;;24.20;53.30;;;;;;4867369;29;20082;-49
2022/01/07 09:22:49;;;;;;;14.85;13.32;;;24.20;53.80;;;;;;4918338;29;20028;-50
2022/01/07 09:25:16;;;;;;;16.67;15.07;;;24.30;53.50;;;;;;4917783;29;20066;-50
2022/01/07 09:27:42;;;;;;;18.90;16.02;;;24.30;53.70;;;;;;4899815;29;20088;-50
2022/01/07 09:30:13;;;;;;;12.32;11.27;;;24.00;53.60;;;;;;4918440;29;20024;-50
2022/01/07 09:32:39;;;;;;;15.48;14.05;;;24.20;52.40;;;;;;4916525;29;20091;-50
2022/01/07 09:35:06;;;;;;;14.38;13.07;;;23.20;53.10;;;;;;4913326;29;20401;-50
2022/01/07 09:37:32;;;;;;;90.07;51.78;;;;;;;;;;4867389;29;20537;-50
2022/01/07 09:40:00;;;;;;;22.85;16.40;;;22.50;63.60;;;;;;4917126;29;20032;-50
2022/01/07 09:42:27;;;;;;;51.72;49.05;;;22.70;54.80;;;;;;4916937;29;20039;-50
2022/01/07 09:44:53;;;;;;;18.35;17.05;;;;;;;;;;4913445;29;20040;-50
2022/01/07 09:47:19;;;;;;;13.75;12.85;;;23.90;52.40;;;;;;4871667;29;20040;-50
2022/01/07 09:49:44;;;;;;;26.70;25.02;;;23.50;52.60;;;;;;4917110;29;20035;-50
2022/01/07 09:52:10;;;;;;;13.05;11.85;;;23.40;52.70;;;;;;4836898;29;20625;-50
2022/01/07 09:54:38;;;;;;;17.25;13.38;;;23.30;53.50;;;;;;4915281;29;20034;-50
2022/01/07 09:57:06;;;;;;;28.70;26.08;;;23.10;53.90;;;;;;4916838;29;20043;-50
2022/01/07 09:59:36;;;;;;;12.77;11.82;;;23.10;53.40;;;;;;4916875;29;20156;-50
2022/01/07 10:02:07;;;;;;;33.72;27.15;;;23.10;53.00;;;;;;4916514;29;20495;-50
2022/01/07 10:04:41;;;;;;;110.80;75.10;;;22.40;54.00;;;;;;4916657;29;20061;-50
2022/01/07 10:07:13;;;;;;;105.20;69.10;;;21.50;55.10;;;;;;4913438;29;20063;-52
2022/01/07 10:09:40;;;;;;;26.98;22.98;;;20.40;55.30;;;;;;4916514;29;20032;-50
2022/01/07 10:12:09;;;;;;;18.98;16.60;;;19.80;55.40;;;;;;4873253;29;20044;-51
2022/01/07 10:14:36;;;;;;;95.53;62.42;;;20.00;56.00;;;;;;4853606;29;20032;-51
2022/01/07 10:17:06;;;;;;;22.17;18.85;;;20.80;56.00;;;;;;4915530;29;20176;-51
2022/01/07 10:19:42;;;;;;;13.52;12.23;;;21.00;55.50;;;;;;4856407;29;20521;-51
2022/01/07 10:22:11;;;;;;;12.43;11.43;;;20.80;55.80;;;;;;4856399;29;20505;-51
2022/01/07 10:24:52;;;;;;;9.25;8.38;;;20.90;55.60;;;;;;4857533;29;20049;-51
2022/01/07 10:27:18;;;;;;;13.77;12.48;;;21.00;54.60;;;;;;4856573;29;20046;-51
2022/01/07 10:29:44;;;;;;;16.25;14.57;;;20.90;55.00;;;;;;4858720;29;20183;-51
2022/01/07 10:32:29;;;;;;;11.80;10.63;;;20.90;55.60;;;;;;4858818;29;20072;-51
2022/01/07 10:35:03;;;;;;;10.60;9.60;;;21.30;55.20;;;;;;4857797;29;20074;-51
2022/01/07 10:37:29;;;;;;;33.45;29.02;;;21.10;55.60;;;;;;4857484;29;20042;-51
2022/01/07 10:39:56;;;;;;;57.78;43.72;;;20.60;56.10;;;;;;4858219;29;20042;-51
2022/01/07 10:42:25;;;;;;;19.88;15.40;;;21.00;56.00;;;;;;4858117;29;20075;-51
2022/01/07 10:45:03;;;;;;;13.75;12.48;;;20.30;56.40;;;;;;4825283;29;20118;-51
2022/01/07 10:47:29;;;;;;;22.80;18.92;;;21.00;55.40;;;;;;4856243;29;20033;-53
2022/01/07 10:50:15;;;;;;;15.15;13.40;;;20.40;55.30;;;;;;4828199;29;20044;-51
2022/01/07 10:52:41;;;;;;;10.30;9.30;;;18.70;56.50;;;;;;4902646;29;20066;-51
2022/01/07 10:55:21;;;;;;;8.77;7.97;;;18.30;57.20;;;;;;4899555;29;20500;-51
2022/01/07 10:57:50;;;;;;;10.20;9.20;;;19.00;56.20;;;;;;4894373;29;20127;-51
2022/01/07 11:00:21;;;;;;;15.98;11.93;;;18.60;56.40;;;;;;4894239;29;20049;-51
2022/01/07 11:02:47;;;;;;;10.77;9.37;;;19.30;56.60;;;;;;4893769;29;20080;-51
2022/01/07 11:05:13;;;;;;;12.75;10.43;;;18.90;57.00;;;;;;4894160;29;20283;-51
2022/01/07 11:07:40;;;;;;;14.18;12.77;;;17.80;57.90;;;;;;4894652;29;20097;-51
2022/01/07 11:10:08;;;;;;;10.65;9.50;;;18.50;57.50;;;;;;4891792;29;20168;-53
2022/01/07 11:12:35;;;;;;;19.95;14.90;;;18.10;57.50;;;;;;4891326;29;20052;-51
2022/01/07 11:15:03;;;;;;;14.07;12.45;;;18.50;57.30;;;;;;4893943;29;20073;-51
2022/01/07 11:17:30;;;;;;;15.77;10.93;;;18.60;56.00;;;;;;4894600;29;20032;-51
2022/01/07 11:19:59;;;;;;;16.95;12.23;;;18.70;56.00;;;;;;4894389;29;20785;-51
2022/01/07 11:22:26;;;;;;;14.63;11.60;;;17.40;56.90;;;;;;4885701;29;20149;-52
2022/01/07 11:24:59;;;;;;;14.18;11.25;;;18.00;56.00;;;;;;4885722;29;20053;-51
2022/01/07 11:27:27;;;;;;;16.98;10.57;;;18.70;56.10;;;;;;4889350;29;20033;-51
2022/01/07 11:30:10;;;;;;;10.27;8.55;;;18.70;56.70;;;;;;4910190;29;20033;-51
2022/01/07 11:32:41;;;;;;;10.43;9.43;;;19.20;55.30;;;;;;4913559;29;20548;-51
2022/01/07 11:35:19;;;;;;;15.15;10.50;;;19.00;55.60;;;;;;4913756;29;20028;-51
2022/01/07 11:37:47;;;;;;;10.55;9.00;;;18.60;55.60;;;;;;4914067;29;20107;-51
2022/01/07 11:40:46;;;;;;;11.50;9.50;;;18.00;55.40;;;;;;4863138;29;20036;-51
2022/01/07 11:43:20;;;;;;;13.15;11.75;;;16.90;56.70;;;;;;4790729;29;20059;-52
2022/01/07 11:45:47;;;;;;;14.50;11.07;;;16.70;56.80;;;;;;4816230;29;20095;-51
2022/01/07 11:48:25;;;;;;;13.48;11.32;;;17.50;56.80;;;;;;4815168;29;20110;-52
2022/01/07 11:50:58;;;;;;;12.00;9.65;;;17.80;57.50;;;;;;4800761;29;20075;-51
2022/01/07 11:53:25;;;;;;;12.10;10.90;;;18.00;56.50;;;;;;4801468;29;20401;-52
2022/01/07 11:55:57;;;;;;;13.68;9.27;;;18.00;57.50;;;;;;4801647;29;20461;-51
2022/01/07 11:58:36;;;;;;;9.15;8.20;;;17.30;55.40;;;;;;4802012;29;20038;-51
2022/01/07 12:01:04;;;;;;;15.68;11.00;;;18.00;56.00;;;;;;4805741;29;20081;-51
2022/01/07 12:03:42;;;;;;;15.43;11.88;;;17.20;56.60;;;;;;4805398;29;20058;-51
2022/01/07 12:06:24;;;;;;;11.45;10.25;;;16.80;57.50;;;;;;4805531;29;20091;-51
2022/01/07 12:08:59;;;;;;;12.88;9.40;;;17.00;58.60;;;;;;4798564;29;20071;-51
2022/01/07 12:11:29;;;;;;;13.18;8.20;;;16.30;56.60;;;;;;4786994;30;20055;-55
2022/01/07 12:13:55;;;;;;;15.30;9.00;;;15.20;57.40;;;;;;4787460;30;20067;-52
2022/01/07 12:16:23;;;;;;;12.90;7.78;;;15.40;59.40;;;;;;4787423;30;20089;-51
2022/01/07 12:18:49;;;;;;;14.25;9.00;;;14.60;60.10;;;;;;4834144;29;20088;-51
2022/01/07 12:21:15;;;;;;;10.38;8.13;;;13.90;59.60;;;;;;4879229;29;20045;-51
2022/01/07 12:23:42;;;;;;;11.88;8.40;;;14.50;60.60;;;;;;4880750;29;20044;-51
2022/01/07 12:26:08;;;;;;;13.93;8.70;;;;;;;;;;4884040;29;20674;-51
2022/01/07 12:28:48;;;;;;;11.18;7.63;;;13.60;64.20;;;;;;4898894;29;20044;-52
2022/01/07 12:31:14;;;;;;;14.73;9.52;;;13.80;58.80;;;;;;4899650;29;20041;-51
2022/01/07 12:33:53;;;;;;;16.25;11.73;;;13.30;60.10;;;;;;4898841;29;20068;-52
2022/01/07 12:36:29;;;;;;;18.63;13.82;;;13.10;61.40;;;;;;4896427;29;20067;-51
2022/01/07 12:39:09;;;;;;;18.48;12.00;;;13.90;62.70;;;;;;4898913;29;20028;-51
2022/01/07 12:41:37;;;;;;;20.38;13.63;;;14.00;62.50;;;;;;4896828;29;20370;-51
2022/01/07 12:44:14;;;;;;;21.33;15.38;;;14.00;62.60;;;;;;4898683;29;20072;-51
2022/01/07 12:46:49;;;;;;;22.00;13.85;;;13.90;61.60;;;;;;4911109;29;20141;-51
2022/01/07 12:49:14;;;;;;;34.55;25.02;;;13.80;62.40;;;;;;4896937;29;20032;-51